Armington, Illinois
Current Conditions -  °F | °C
As of 8:55 PM on Sunday 23 Nov 2014 (Local Time) from KAAA Reporting Station
Light Rain Light Rain  
Wind Chill: 51°   Ceiling: 200
Heat Index: 51°   Visibility: 2.5mi
Dew Point: 50°   Wind: 0mph
Humidity: 97%   Direction: NA
Pressure: 29.2"   Gusts: NA
Location:  40.34°N, 89.31°W
Report Text: KAAA 240255Z AUTO 00000KT 2 1/2SM -RA OVC002 11/10 A2920 RMK AO2 P0004 60025 T01050100
Loading
Personal Weather Stations






























Interactive Weather Map New forecast layout! Learn more

10-Day Weather Forecast

Advertisements
Track Severe Weather on mobile